Time;durP1;ratioP1;P1;durP2;ratioP2;P2;SDS_P1;SDS_P2;PMS_P1;PMS_P2;Temp;Humidity;BMP_temperature;BMP_pressure;BME280_temperature;BME280_humidity;BME280_pressure;Samples;Min_cycle;Max_cycle;Signal;HPM_P1;HPM_P2
2023/11/27 00:00:08;;;;;;;1.20;0.20;;;;;;;-1.70;73.10;101087.22;4994146;28;20047;-79
2023/11/27 00:02:35;;;;;;;2.10;0.30;;;;;;;-1.68;73.38;101085.59;4993813;28;20504;-79
2023/11/27 00:05:02;;;;;;;0.88;0.22;;;;;;;-1.68;73.11;101084.69;4994918;28;20129;-79
2023/11/27 00:07:29;;;;;;;1.23;0.30;;;;;;;-1.68;73.23;101100.97;4993883;28;20514;-78
2023/11/27 00:09:58;;;;;;;1.75;0.20;;;;;;;-1.67;73.96;101092.44;4993830;28;20043;-79
2023/11/27 00:12:25;;;;;;;3.15;0.57;;;;;;;-1.66;73.55;101094.19;4993902;28;20081;-79
2023/11/27 00:14:55;;;;;;;1.38;0.20;;;;;;;-1.70;73.66;101078.66;4993814;28;20105;-81
2023/11/27 00:17:23;;;;;;;0.80;0.30;;;;;;;-1.74;73.26;101069.97;4994535;28;20124;-80
2023/11/27 00:19:50;;;;;;;0.60;0.20;;;;;;;-1.65;73.60;101089.94;4993769;28;20046;-80
2023/11/27 00:22:17;;;;;;;1.08;0.40;;;;;;;-1.66;73.41;101083.94;4994678;28;20105;-79
2023/11/27 00:24:44;;;;;;;1.75;0.20;;;;;;;-1.66;73.99;101083.94;4993742;28;20054;-79
2023/11/27 00:27:12;;;;;;;0.90;0.30;;;;;;;-1.68;73.45;101077.91;4994648;28;20092;-79
2023/11/27 00:29:39;;;;;;;1.77;0.40;;;;;;;-1.69;73.85;101078.72;4993506;28;20086;-80
2023/11/27 00:32:07;;;;;;;1.75;0.50;;;;;;;-1.65;73.65;101085.69;4994674;28;20457;-79
2023/11/27 00:34:34;;;;;;;0.80;0.30;;;;;;;-1.64;73.54;101089.13;4994020;28;20141;-79
2023/11/27 00:37:01;;;;;;;1.80;0.65;;;;;;;-1.64;73.16;101092.56;4993709;28;20566;-79
2023/11/27 00:39:28;;;;;;;0.55;0.40;;;;;;;-1.64;73.18;101092.56;4993715;28;20540;-79
2023/11/27 00:41:55;;;;;;;1.88;1.10;;;;;;;-1.63;74.15;101099.41;4994378;28;20491;-79
2023/11/27 00:44:23;;;;;;;0.73;0.25;;;;;;;-1.69;73.74;101090.66;4995357;28;20058;-80
2023/11/27 00:46:50;;;;;;;2.15;0.40;;;;;;;-1.64;73.61;101102.81;4997235;28;20133;-79
2023/11/27 00:49:18;;;;;;;1.80;0.35;;;;;;;-1.63;73.76;101104.53;4997254;28;20042;-79
2023/11/27 00:51:45;;;;;;;1.48;0.50;;;;;;;-1.63;73.83;101107.09;4997992;28;20054;-80
2023/11/27 00:54:12;;;;;;;0.47;0.25;;;;;;;-1.63;73.64;101096.00;4997817;28;20074;-79
2023/11/27 00:56:40;;;;;;;0.60;0.20;;;;;;;-1.63;73.25;101104.53;4997921;28;20426;-79
2023/11/27 00:59:07;;;;;;;0.75;0.40;;;;;;;-1.61;74.02;101102.91;4997252;28;20149;-76
2023/11/27 01:01:36;;;;;;;0.95;0.35;;;;;;;-1.60;73.77;101102.09;4997302;28;20050;-77
2023/11/27 01:04:03;;;;;;;0.88;0.28;;;;;;;-1.59;73.67;101106.41;4996497;28;20085;-76
2023/11/27 01:06:30;;;;;;;3.40;0.55;;;;;;;-1.59;73.30;101108.97;4997272;28;20504;-76
2023/11/27 01:08:56;;;;;;;1.35;0.47;;;;;;;-1.61;74.24;101115.72;4996511;28;20081;-76
2023/11/27 01:11:23;;;;;;;1.80;0.40;;;;;;;-1.57;74.02;101119.25;4996225;28;20051;-75
2023/11/27 01:13:50;;;;;;;0.40;0.20;;;;;;;-1.58;73.16;101118.38;4996273;28;20078;-76
2023/11/27 01:16:17;;;;;;;0.77;0.40;;;;;;;-1.58;73.84;101115.84;4996121;28;20046;-76
2023/11/27 01:18:46;;;;;;;0.90;0.40;;;;;;;-1.58;74.08;101118.38;4997357;28;20054;-76
2023/11/27 01:21:13;;;;;;;1.08;0.30;;;;;;;-1.56;73.47;101123.59;4996437;28;20468;-76
2023/11/27 01:23:40;;;;;;;3.22;0.47;;;;;;;-1.56;73.83;101120.16;4997246;28;20074;-76
2023/11/27 01:26:07;;;;;;;1.30;0.50;;;;;;;-1.61;73.89;101115.72;4996900;28;20054;-75
2023/11/27 01:28:36;;;;;;;0.73;0.50;;;;;;;-1.56;73.90;101125.28;4996081;28;20050;-76
2023/11/27 01:31:03;;;;;;;1.05;0.40;;;;;;;-1.58;73.85;101138.88;4996864;28;20145;-76
2023/11/27 01:33:30;;;;;;;1.35;0.40;;;;;;;-1.58;74.03;101133.75;4995976;28;20129;-76
2023/11/27 01:35:58;;;;;;;3.50;0.57;;;;;;;-1.64;73.96;101130.97;4976797;28;20074;-76
2023/11/27 01:38:25;;;;;;;1.55;0.50;;;;;;;-1.62;73.63;101137.03;4977476;28;20122;-76
2023/11/27 01:40:52;;;;;;;4.25;0.47;;;;;;;-1.67;73.56;101123.19;4976653;28;20428;-76
2023/11/27 01:43:19;;;;;;;0.47;0.13;;;;;;;-1.63;73.72;101129.28;4976278;28;20130;-76
2023/11/27 01:45:46;;;;;;;0.63;0.50;;;;;;;-1.63;73.52;101135.28;4976211;28;20134;-76
2023/11/27 01:48:13;;;;;;;1.00;0.40;;;;;;;-1.63;72.96;101130.16;4977337;28;20127;-76
2023/11/27 01:50:41;;;;;;;1.17;0.43;;;;;;;-1.64;72.88;101133.53;4977271;28;20125;-76
2023/11/27 01:53:09;;;;;;;0.60;0.50;;;;;;;-1.64;73.27;101123.28;4977210;28;20046;-76
2023/11/27 01:55:36;;;;;;;2.55;0.55;;;;;;;-1.62;72.92;101126.78;4975160;28;20129;-75
2023/11/27 01:58:03;;;;;;;1.30;0.52;;;;;;;-1.61;72.71;101128.53;4975995;28;20133;-76
2023/11/27 02:00:31;;;;;;;1.50;0.60;;;;;;;-1.62;72.73;101125.94;4976023;28;20133;-76
2023/11/27 02:03:00;;;;;;;2.55;0.98;;;;;;;-1.62;72.74;101123.38;4976214;28;20130;-76
2023/11/27 02:05:27;;;;;;;0.75;0.60;;;;;;;-1.62;72.61;101131.06;4976165;28;20134;-75
2023/11/27 02:07:54;;;;;;;2.47;0.47;;;;;;;-1.63;72.21;101127.59;4975988;28;20086;-72
2023/11/27 02:10:21;;;;;;;1.63;0.50;;;;;;;-1.64;72.46;101130.97;4975847;28;20493;-72
2023/11/27 02:12:48;;;;;;;1.02;0.50;;;;;;;-1.65;72.46;101125.78;4975805;28;20078;-72
2023/11/27 02:15:15;;;;;;;4.38;0.73;;;;;;;-1.66;72.07;101124.91;4975707;28;20087;-72
2023/11/27 02:17:42;;;;;;;2.38;0.75;;;;;;;-1.74;72.39;101116.09;4976862;28;20122;-89
2023/11/27 02:20:10;;;;;;;1.20;0.63;;;;;;;-1.68;72.00;101131.69;4978299;28;20046;-89
2023/11/27 02:22:37;;;;;;;1.98;0.55;;;;;;;-1.67;72.43;101130.88;4977841;28;20050;-87
2023/11/27 02:25:07;;;;;;;1.88;0.98;;;;;;;-1.70;72.71;101130.75;4977835;28;20088;-87
2023/11/27 02:27:34;;;;;;;1.83;0.60;;;;;;;-1.67;72.07;101130.88;4978013;28;20072;-89
2023/11/27 02:30:01;;;;;;;1.00;0.60;;;;;;;-1.67;72.48;101130.00;4977754;28;20093;-88
2023/11/27 02:32:28;;;;;;;0.70;0.50;;;;;;;-1.69;72.44;101136.75;4977556;28;20055;-88
2023/11/27 02:34:55;;;;;;;2.88;0.60;;;;;;;-1.70;72.55;101135.03;4989047;28;20082;-89
2023/11/27 02:37:22;;;;;;;0.95;0.40;;;;;;;-1.69;72.70;101129.06;4996707;28;20084;-88
2023/11/27 02:39:49;;;;;;;1.80;0.60;;;;;;;-1.70;72.25;101135.88;4997305;28;20515;-88
2023/11/27 02:42:18;;;;;;;1.25;0.68;;;;;;;-1.70;72.52;101137.56;4997032;28;20378;-88
2023/11/27 02:44:45;;;;;;;2.42;0.93;;;;;;;-1.73;72.06;101146.03;4997160;28;20058;-87
2023/11/27 02:47:12;;;;;;;1.90;0.80;;;;;;;-1.71;72.08;101141.81;4996472;28;20555;-88
2023/11/27 02:49:39;;;;;;;1.75;0.52;;;;;;;-1.72;72.33;101150.31;4997455;28;20537;-89
2023/11/27 02:52:06;;;;;;;1.80;0.75;;;;;;;-1.73;72.25;101148.56;4997508;28;20114;-88
2023/11/27 02:54:33;;;;;;;4.03;0.73;;;;;;;-1.75;72.50;101150.19;4996525;28;20050;-88
2023/11/27 02:57:00;;;;;;;1.45;0.70;;;;;;;-1.76;72.32;101153.59;4996186;28;20488;-89
2023/11/27 02:59:30;;;;;;;2.08;0.90;;;;;;;-1.72;72.28;101155.44;4997077;28;20133;-88
2023/11/27 03:01:57;;;;;;;1.35;0.70;;;;;;;-1.74;71.96;101159.63;4996670;28;20050;-89
2023/11/27 03:04:29;;;;;;;1.67;0.70;;;;;;;-1.69;72.46;101164.91;4996245;28;20078;-88
2023/11/27 03:06:55;;;;;;;1.20;0.50;;;;;;;-1.66;72.16;101170.16;4997174;28;20069;-89
2023/11/27 03:09:23;;;;;;;3.50;0.80;;;;;;;-1.64;72.42;101173.66;4996843;28;20150;-88
2023/11/27 03:11:50;;;;;;;4.60;0.57;;;;;;;-1.63;72.55;101178.81;4996453;28;20081;-89
2023/11/27 03:14:17;;;;;;;4.15;0.60;;;;;;;-1.60;72.97;101181.50;4996252;28;20073;-88
2023/11/27 03:16:45;;;;;;;4.22;0.88;;;;;;;-1.61;72.52;101182.31;4996353;28;20133;-88
2023/11/27 03:19:12;;;;;;;3.35;1.45;;;;;;;-1.59;72.26;101182.41;4994678;28;20081;-76
2023/11/27 03:21:39;;;;;;;2.90;0.80;;;;;;;-1.62;71.51;101177.16;4994860;28;20074;-76
2023/11/27 03:24:07;;;;;;;1.30;0.70;;;;;;;-1.62;71.68;101183.16;4994364;28;20084;-76
2023/11/27 03:26:34;;;;;;;1.88;1.10;;;;;;;-1.60;71.97;101185.75;4994241;28;20093;-76
2023/11/27 03:29:01;;;;;;;1.27;0.70;;;;;;;-1.61;71.93;101187.44;4994649;28;20140;-77
2023/11/27 03:31:28;;;;;;;4.10;0.50;;;;;;;-1.62;72.38;101180.59;4993920;28;20046;-76
2023/11/27 03:33:57;;;;;;;2.90;0.60;;;;;;;-1.60;71.83;101176.38;4993821;28;20544;-77
2023/11/27 03:36:25;;;;;;;3.00;0.70;;;;;;;-1.61;72.13;101169.50;4994113;28;20108;-77
2023/11/27 03:38:52;;;;;;;1.17;0.57;;;;;;;-1.56;72.56;101179.06;4993864;28;20046;-77
2023/11/27 03:41:20;;;;;;;2.45;0.70;;;;;;;-1.55;72.33;101179.13;4994667;28;20046;-77
2023/11/27 03:43:47;;;;;;;1.45;0.70;;;;;;;-1.53;72.17;101184.31;4993997;28;20409;-77
2023/11/27 03:46:15;;;;;;;2.40;0.98;;;;;;;-1.53;72.47;101182.63;4993675;28;20141;-77
2023/11/27 03:48:42;;;;;;;2.47;1.02;;;;;;;-1.57;72.26;101173.06;4994604;28;20449;-77
2023/11/27 03:51:10;;;;;;;1.50;0.52;;;;;;;-1.53;71.78;101182.63;4993684;28;20527;-77
2023/11/27 03:53:37;;;;;;;1.90;0.45;;;;;;;-1.55;71.83;101180.81;4994228;28;20126;-77
2023/11/27 03:56:05;;;;;;;2.13;0.82;;;;;;;-1.54;71.52;101185.97;4993836;28;20085;-77
2023/11/27 03:58:32;;;;;;;2.05;0.70;;;;;;;-1.57;72.10;101180.75;4994680;28;20050;-77
2023/11/27 04:01:03;;;;;;;2.05;0.75;;;;;;;-1.60;71.73;101180.63;4994802;28;20125;-77
2023/11/27 04:03:30;;;;;;;1.50;0.50;;;;;;;-1.61;71.37;101187.44;4993730;28;20089;-77
2023/11/27 04:05:58;;;;;;;2.40;0.63;;;;;;;-1.61;71.52;101189.13;4993597;28;20093;-77
2023/11/27 04:08:26;;;;;;;1.33;0.60;;;;;;;-1.64;71.17;101184.78;4994295;28;20049;-77
2023/11/27 04:10:54;;;;;;;0.95;0.65;;;;;;;-1.63;71.75;101191.63;4993887;28;20078;-77
2023/11/27 04:13:21;;;;;;;0.93;0.40;;;;;;;-1.65;71.19;101190.72;4994409;28;20108;-76
2023/11/27 04:15:48;;;;;;;1.15;0.40;;;;;;;-1.66;71.26;101190.66;4994555;28;20478;-76
2023/11/27 04:18:15;;;;;;;2.33;0.60;;;;;;;-1.69;70.75;101193.97;4994497;28;20468;-76
2023/11/27 04:20:43;;;;;;;1.83;0.40;;;;;;;-1.69;71.05;101206.78;4997728;28;20056;-76
2023/11/27 04:23:10;;;;;;;2.15;0.40;;;;;;;-1.70;70.77;101207.59;4997244;28;20065;-76
2023/11/27 04:25:39;;;;;;;4.53;0.70;;;;;;;-1.71;71.15;101208.38;4997160;28;20078;-76
2023/11/27 04:28:06;;;;;;;1.02;0.40;;;;;;;-1.70;70.93;101207.59;4997954;28;20400;-80
2023/11/27 04:30:33;;;;;;;2.55;0.82;;;;;;;-1.74;71.13;101199.72;4998144;28;20101;-79
2023/11/27 04:33:00;;;;;;;0.55;0.40;;;;;;;-1.75;71.14;101210.78;4998485;28;20050;-80
2023/11/27 04:35:27;;;;;;;2.38;0.63;;;;;;;-1.73;70.93;101221.97;4998602;28;20105;-79
2023/11/27 04:37:54;;;;;;;2.00;0.50;;;;;;;-1.75;70.83;101211.66;4998341;28;20086;-75
2023/11/27 04:40:21;;;;;;;3.42;1.50;;;;;;;-1.75;71.16;101219.34;4996979;28;20042;-75
2023/11/27 04:42:49;;;;;;;2.25;0.50;;;;;;;-1.74;70.63;101226.22;4997266;28;20101;-75
2023/11/27 04:45:18;;;;;;;1.13;0.50;;;;;;;-1.74;71.03;101217.66;4996749;28;20134;-75
2023/11/27 04:47:45;;;;;;;2.67;0.40;;;;;;;-1.76;71.06;101215.06;4997912;28;20054;-75
2023/11/27 04:50:12;;;;;;;1.77;0.40;;;;;;;-1.74;70.77;101218.53;4996730;28;20454;-75
2023/11/27 04:52:39;;;;;;;2.22;0.57;;;;;;;-1.75;70.38;101223.59;4997079;28;20085;-76
2023/11/27 04:55:07;;;;;;;0.60;0.30;;;;;;;-1.78;70.81;101220.94;4998001;28;20125;-75
2023/11/27 04:57:35;;;;;;;4.95;0.70;;;;;;;-1.80;71.14;101223.41;4997420;28;20137;-76
2023/11/27 05:00:04;;;;;;;0.65;0.30;;;;;;;-1.80;70.96;101223.41;4998384;28;20042;-75
2023/11/27 05:02:31;;;;;;;3.15;0.50;;;;;;;-1.81;70.83;101221.69;4996525;28;20485;-75
2023/11/27 05:04:58;;;;;;;2.42;0.35;;;;;;;-1.82;70.68;101215.69;4996452;28;20526;-76
2023/11/27 05:07:25;;;;;;;1.42;0.50;;;;;;;-1.82;70.44;101219.94;4996532;28;20086;-76
2023/11/27 05:09:52;;;;;;;1.75;0.30;;;;;;;-1.85;70.58;101210.44;4997267;28;20143;-75
2023/11/27 05:12:19;;;;;;;1.20;0.50;;;;;;;-1.83;71.25;101213.91;4997141;28;20523;-75
2023/11/27 05:14:46;;;;;;;5.45;1.40;;;;;;;-1.82;70.49;101220.81;4996341;28;20551;-75
2023/11/27 05:17:15;;;;;;;1.08;0.30;;;;;;;-1.85;70.15;101219.78;4997369;28;20046;-76
2023/11/27 05:19:41;;;;;;;3.00;0.30;;;;;;;-1.88;69.85;101212.00;4997253;28;20057;-75
2023/11/27 05:22:08;;;;;;;1.05;0.40;;;;;;;-1.89;70.14;101217.94;4997035;28;20046;-75
2023/11/27 05:24:35;;;;;;;0.70;0.40;;;;;;;-1.91;69.97;101210.19;4996361;28;20125;-76
2023/11/27 05:27:03;;;;;;;0.80;0.32;;;;;;;-1.90;70.17;101211.09;4997259;28;20516;-76
2023/11/27 05:29:30;;;;;;;1.85;0.40;;;;;;;-1.91;69.90;101212.75;4996940;28;20369;-76
2023/11/27 05:31:57;;;;;;;3.65;0.30;;;;;;;-2.00;69.34;101196.16;4995685;28;20085;-76
2023/11/27 05:34:26;;;;;;;2.00;0.50;;;;;;;-1.95;69.58;101207.47;4996232;28;20499;-76
2023/11/27 05:36:53;;;;;;;0.60;0.40;;;;;;;-1.94;69.66;101219.44;4995812;28;20046;-76
2023/11/27 05:39:20;;;;;;;1.67;0.32;;;;;;;-1.96;70.49;101211.72;4996359;28;20046;-75
2023/11/27 05:41:49;;;;;;;1.00;0.28;;;;;;;-1.95;69.62;101222.81;4996232;28;20100;-76
2023/11/27 05:44:17;;;;;;;1.10;0.30;;;;;;;-1.96;69.50;101223.66;4995829;28;20056;-76
2023/11/27 05:46:44;;;;;;;1.00;0.40;;;;;;;-1.97;70.12;101219.31;4996817;28;20054;-76
2023/11/27 05:49:11;;;;;;;0.70;0.40;;;;;;;-1.98;70.03;101226.13;4996979;28;20070;-79
2023/11/27 05:51:41;;;;;;;0.85;0.40;;;;;;;-2.00;70.53;101217.50;4996381;28;20073;-80
2023/11/27 05:54:09;;;;;;;0.50;0.20;;;;;;;-2.01;70.13;101213.22;4996343;28;20061;-80
2023/11/27 05:56:36;;;;;;;1.08;0.40;;;;;;;-2.03;69.96;101215.69;4996506;28;20078;-80
2023/11/27 05:59:03;;;;;;;0.80;0.30;;;;;;;-2.05;70.00;101219.91;4996157;28;20049;-80
2023/11/27 06:01:31;;;;;;;0.88;0.47;;;;;;;-2.06;70.07;101225.81;4995888;28;20516;-80
2023/11/27 06:03:58;;;;;;;0.63;0.40;;;;;;;-2.13;70.19;101208.50;4995918;28;20046;-79
2023/11/27 06:06:25;;;;;;;1.23;0.60;;;;;;;-2.11;69.80;101213.66;4997299;28;20405;-80
2023/11/27 06:08:53;;;;;;;1.50;0.40;;;;;;;-2.10;70.03;101229.09;4995704;28;20125;-80
2023/11/27 06:11:20;;;;;;;0.50;0.30;;;;;;;-2.12;70.26;101234.94;4996410;28;20085;-80
2023/11/27 06:13:47;;;;;;;0.15;0.10;;;;;;;-2.23;69.97;101216.59;4995726;28;20085;-79
2023/11/27 06:16:14;;;;;;;1.50;0.50;;;;;;;-2.18;70.12;101229.59;4995801;28;20081;-79
2023/11/27 06:18:41;;;;;;;0.57;0.40;;;;;;;-2.21;69.86;101232.91;4995633;28;20125;-79
2023/11/27 06:21:12;;;;;;;0.95;0.40;;;;;;;-2.27;69.65;101233.53;4997248;28;20382;-80
2023/11/27 06:23:39;;;;;;;1.05;0.50;;;;;;;-2.26;69.73;101237.81;4995760;28;20050;-80
2023/11/27 06:26:12;;;;;;;1.25;0.40;;;;;;;-2.32;69.18;101226.47;4995360;28;20046;-80
2023/11/27 06:28:39;;;;;;;1.15;0.40;;;;;;;-2.30;68.79;101232.53;4996255;28;20477;-80
2023/11/27 06:31:07;;;;;;;0.98;0.40;;;;;;;-2.34;69.22;101239.19;4995652;28;20100;-80
2023/11/27 06:33:34;;;;;;;0.75;0.45;;;;;;;-2.35;69.13;101236.56;4996375;28;20074;-79
2023/11/27 06:36:01;;;;;;;1.48;0.50;;;;;;;-2.37;69.40;101244.19;4994993;28;20109;-79
2023/11/27 06:38:28;;;;;;;2.65;0.40;;;;;;;-2.39;69.07;101239.81;4995230;28;20061;-79
2023/11/27 06:40:55;;;;;;;1.55;0.40;;;;;;;-2.40;69.54;101246.59;4995423;28;20069;-80
2023/11/27 06:43:24;;;;;;;1.10;0.75;;;;;;;-2.41;69.36;101249.13;4995233;28;20047;-80
2023/11/27 06:45:52;;;;;;;2.45;0.50;;;;;;;-2.45;69.32;101252.34;4996444;28;20050;-80
2023/11/27 06:48:19;;;;;;;0.43;0.20;;;;;;;-2.44;69.01;101256.66;4996428;28;20046;-88
2023/11/27 06:50:46;;;;;;;1.33;0.40;;;;;;;-2.46;69.11;101266.81;5000643;28;20089;-89
2023/11/27 06:53:13;;;;;;;2.78;0.40;;;;;;;-2.61;69.62;101238.94;4997814;28;20122;-88
2023/11/27 06:55:40;;;;;;;0.65;0.30;;;;;;;-2.59;69.64;101244.09;4996476;28;20093;-89
2023/11/27 06:58:08;;;;;;;1.60;0.40;;;;;;;-2.56;69.45;101257.91;4996550;28;20043;-75
2023/11/27 07:00:36;;;;;;;0.85;0.50;;;;;;;-2.58;68.95;101262.06;4994303;28;20053;-76
2023/11/27 07:03:05;;;;;;;2.50;0.40;;;;;;;-2.60;69.51;101263.69;4995178;28;20046;-75
2023/11/27 07:05:32;;;;;;;0.75;0.30;;;;;;;-2.64;68.96;101266.94;4995435;28;20043;-76
2023/11/27 07:07:59;;;;;;;1.92;0.35;;;;;;;-2.68;69.60;101267.59;4994496;28;20058;-75
2023/11/27 07:10:28;;;;;;;1.55;0.40;;;;;;;-2.68;69.12;101274.38;4995226;28;20463;-76
2023/11/27 07:12:56;;;;;;;1.67;0.32;;;;;;;-2.70;68.85;101276.91;4995313;28;20056;-75
2023/11/27 07:15:24;;;;;;;0.88;0.35;;;;;;;-2.72;69.29;101278.50;4994168;28;20050;-75
2023/11/27 07:17:53;;;;;;;1.15;0.40;;;;;;;-2.74;69.41;101269.88;4994662;28;20437;-75
2023/11/27 07:20:21;;;;;;;2.47;0.50;;;;;;;-2.74;68.89;101282.66;4994127;28;20484;-75
2023/11/27 07:22:48;;;;;;;0.30;0.20;;;;;;;-2.77;69.02;101268.06;4995362;28;20449;-75
2023/11/27 07:25:16;;;;;;;0.93;0.40;;;;;;;-2.80;68.96;101275.59;4995011;28;20116;-75
2023/11/27 07:27:45;;;;;;;1.20;0.45;;;;;;;-2.83;69.33;101269.50;4993997;28;20054;-75
2023/11/27 07:30:15;;;;;;;0.55;0.20;;;;;;;-2.84;69.27;101265.19;4994356;28;20050;-76
2023/11/27 07:32:44;;;;;;;2.33;0.40;;;;;;;-2.85;69.16;101263.44;4995002;28;20050;-75
2023/11/27 07:35:12;;;;;;;0.77;0.60;;;;;;;-2.89;69.05;101271.78;4994691;28;20054;-76
2023/11/27 07:37:41;;;;;;;0.32;0.08;;;;;;;-2.91;69.10;101268.28;4993672;28;20042;-76
2023/11/27 07:40:12;;;;;;;0.60;0.40;;;;;;;-2.92;69.38;101267.41;4993859;28;20071;-75
2023/11/27 07:42:39;;;;;;;1.00;0.30;;;;;;;-2.94;69.03;101269.00;4994990;28;20046;-75
2023/11/27 07:45:08;;;;;;;1.95;0.30;;;;;;;-2.95;68.77;101275.81;4994387;28;20057;-75
2023/11/27 07:47:35;;;;;;;0.40;0.30;;;;;;;-2.96;69.23;101270.63;4994899;28;20082;-76
2023/11/27 07:50:06;;;;;;;1.08;0.32;;;;;;;-3.03;69.37;101254.16;4994530;28;20053;-75
2023/11/27 07:52:35;;;;;;;0.95;0.50;;;;;;;-2.99;68.97;101271.38;4993767;28;20129;-75
2023/11/27 07:55:04;;;;;;;0.60;0.40;;;;;;;-2.98;68.77;101268.00;4996818;28;20129;-76
2023/11/27 07:57:32;;;;;;;1.58;0.60;;;;;;;-2.99;69.08;101276.50;4997749;28;20053;-76
2023/11/27 08:00:01;;;;;;;0.95;0.50;;;;;;;-3.01;69.20;101275.53;4999001;28;20050;-73
2023/11/27 08:02:29;;;;;;;1.40;0.50;;;;;;;-3.01;69.21;101270.44;4998691;28;20448;-74
2023/11/27 08:04:56;;;;;;;0.93;0.35;;;;;;;-3.04;69.16;101272.00;4997567;28;20050;-74
2023/11/27 08:07:23;;;;;;;1.00;0.40;;;;;;;-3.04;68.81;101280.53;4997668;28;20050;-73
2023/11/27 08:09:52;;;;;;;0.57;0.22;;;;;;;-3.05;69.52;101275.34;4997893;28;20088;-76
2023/11/27 08:12:19;;;;;;;1.98;0.40;;;;;;;-3.07;69.36;101277.84;4998191;28;20046;-76
2023/11/27 08:14:46;;;;;;;1.25;0.30;;;;;;;-3.08;69.25;101276.06;4997420;28;20517;-75
2023/11/27 08:17:13;;;;;;;1.58;0.40;;;;;;;-3.13;69.38;101269.00;4997695;28;20057;-75
2023/11/27 08:19:40;;;;;;;0.98;0.10;;;;;;;-3.07;69.32;101287.19;4997287;28;20129;-76
2023/11/27 08:22:07;;;;;;;2.45;0.35;;;;;;;-3.09;69.31;101274.34;4997589;28;20064;-76
2023/11/27 08:24:33;;;;;;;1.42;0.40;;;;;;;-3.10;69.06;101272.59;4997583;28;20051;-76
2023/11/27 08:27:02;;;;;;;0.65;0.30;;;;;;;-3.13;68.40;101264.78;4997214;28;20058;-75
2023/11/27 08:29:30;;;;;;;3.78;0.40;;;;;;;-3.12;69.20;101279.31;4996736;28;20066;-75
2023/11/27 08:32:00;;;;;;;0.30;0.20;;;;;;;-3.11;69.31;101269.94;4997668;28;20046;-75
2023/11/27 08:34:28;;;;;;;1.08;0.30;;;;;;;-3.14;69.30;101280.03;4996923;28;20063;-73
2023/11/27 08:36:57;;;;;;;0.20;0.20;;;;;;;-3.12;69.40;101281.88;4997045;28;20069;-74
2023/11/27 08:39:24;;;;;;;0.95;0.50;;;;;;;-3.15;69.54;101271.50;4997163;28;20054;-74
2023/11/27 08:41:52;;;;;;;0.85;0.40;;;;;;;-3.14;69.33;101280.91;4997163;28;20073;-74
2023/11/27 08:44:20;;;;;;;0.65;0.40;;;;;;;-3.21;69.38;101269.53;4996530;28;20050;-74
2023/11/27 08:46:47;;;;;;;0.93;0.38;;;;;;;-3.16;69.37;101277.41;4996600;28;20134;-75
2023/11/27 08:49:14;;;;;;;0.30;0.22;;;;;;;-3.14;69.45;101280.91;4997013;28;20404;-73
2023/11/27 08:51:45;;;;;;;0.85;0.40;;;;;;;-3.15;69.48;101279.16;4996410;28;20495;-74
2023/11/27 08:54:12;;;;;;;2.17;0.30;;;;;;;-3.18;69.63;101279.91;4996489;28;20053;-73
2023/11/27 08:56:41;;;;;;;1.67;0.30;;;;;;;-3.13;69.21;101292.00;4996451;28;20507;-74
2023/11/27 08:59:08;;;;;;;0.82;0.40;;;;;;;-3.14;69.36;101301.34;4996680;28;20050;-74
2023/11/27 09:01:37;;;;;;;1.42;0.40;;;;;;;-3.18;69.40;101294.38;4996687;28;20085;-74
2023/11/27 09:04:04;;;;;;;0.77;0.30;;;;;;;-3.21;69.35;101300.22;4996326;28;20046;-75
2023/11/27 09:06:31;;;;;;;0.77;0.30;;;;;;;-3.23;69.82;101304.38;4996538;28;20129;-74
2023/11/27 09:08:59;;;;;;;1.50;0.50;;;;;;;-3.23;69.48;101300.94;4996768;28;20133;-76
2023/11/27 09:11:26;;;;;;;2.08;0.30;;;;;;;-3.26;69.60;101299.13;4996683;28;20384;-75
2023/11/27 09:13:53;;;;;;;1.23;0.32;;;;;;;-3.25;69.23;101298.28;4996474;28;20077;-76
2023/11/27 09:16:20;;;;;;;1.17;0.30;;;;;;;-3.23;69.81;101313.72;4996240;28;20126;-77
2023/11/27 09:18:52;;;;;;;3.00;0.40;;;;;;;-3.24;69.44;101304.31;4996136;28;20463;-76
2023/11/27 09:21:19;;;;;;;1.23;0.35;;;;;;;-3.26;69.19;101305.91;4996283;28;20117;-76
2023/11/27 09:23:46;;;;;;;0.80;0.40;;;;;;;-3.24;68.25;101311.97;4996279;28;20054;-76
2023/11/27 09:26:14;;;;;;;2.03;0.32;;;;;;;-3.28;68.94;101308.38;4996845;28;20088;-77
2023/11/27 09:28:41;;;;;;;2.28;0.75;;;;;;;-3.26;68.58;101316.13;4996355;28;20397;-76
2023/11/27 09:31:09;;;;;;;1.75;0.30;;;;;;;-3.27;68.13;101319.50;4995857;28;20488;-76
2023/11/27 09:33:36;;;;;;;2.75;0.40;;;;;;;-3.30;68.00;101316.78;4996588;28;20096;-76
2023/11/27 09:36:05;;;;;;;0.82;0.38;;;;;;;-3.35;67.89;101302.94;4995861;28;20097;-77
2023/11/27 09:38:32;;;;;;;0.60;0.45;;;;;;;-3.33;67.34;101314.09;4995711;28;20064;-76
2023/11/27 09:40:59;;;;;;;0.70;0.35;;;;;;;-3.33;67.34;101316.63;4995740;28;20073;-77
2023/11/27 09:43:27;;;;;;;2.95;0.40;;;;;;;-3.40;66.91;101301.03;4995828;28;20049;-76
2023/11/27 09:45:57;;;;;;;1.95;0.40;;;;;;;-3.34;67.12;101314.91;4995853;28;20125;-77
2023/11/27 09:48:24;;;;;;;1.65;0.20;;;;;;;-3.35;66.88;101306.38;4995831;28;20085;-76
2023/11/27 09:50:57;;;;;;;1.15;0.52;;;;;;;-3.34;66.84;101297.88;4996189;28;20070;-75
2023/11/27 09:53:35;;;;;;;1.10;0.30;;;;;;;-3.41;66.47;101301.84;4995711;28;20050;-76
2023/11/27 09:56:03;;;;;;;1.27;0.50;;;;;;;-3.41;66.38;101309.50;4995605;28;20047;-75
2023/11/27 09:58:30;;;;;;;1.73;0.32;;;;;;;-3.38;66.52;101296.00;4995770;28;20126;-79
2023/11/27 10:00:57;;;;;;;1.80;0.60;;;;;;;-3.37;66.89;101304.53;4995832;28;20046;-74
2023/11/27 10:03:25;;;;;;;2.47;0.40;;;;;;;-3.35;65.54;101305.50;4995971;28;20050;-76
2023/11/27 10:05:52;;;;;;;1.13;0.60;;;;;;;-3.36;65.85;101299.47;4995621;28;20050;-78
2023/11/27 10:08:19;;;;;;;2.28;0.70;;;;;;;-3.38;64.88;101288.34;4994757;28;20069;-76
2023/11/27 10:10:48;;;;;;;0.82;0.60;;;;;;;-3.35;64.93;101297.84;4996019;28;20524;-77
2023/11/27 10:13:18;;;;;;;1.38;0.40;;;;;;;-3.36;65.27;101306.28;4995126;28;20042;-76
2023/11/27 10:15:48;;;;;;;2.05;0.40;;;;;;;-3.39;65.49;101307.00;4995241;28;20060;-76
2023/11/27 10:18:19;;;;;;;1.83;0.70;;;;;;;-3.41;65.32;101299.28;4994689;28;20061;-76
2023/11/27 10:20:48;;;;;;;1.58;0.60;;;;;;;-3.40;64.80;101297.59;4996307;28;20452;-82
2023/11/27 10:23:17;;;;;;;1.92;1.60;;;;;;;-3.43;64.69;101298.34;4996187;28;20129;-77
2023/11/27 10:25:45;;;;;;;1.60;0.60;;;;;;;-3.43;64.73;101289.81;4995592;28;20046;-76
2023/11/27 10:28:13;;;;;;;0.40;0.30;;;;;;;-3.42;65.63;101294.97;4995175;28;20054;-78
2023/11/27 10:30:40;;;;;;;1.38;0.40;;;;;;;-3.43;65.13;101293.22;4996009;28;20069;-81
2023/11/27 10:33:07;;;;;;;1.13;0.75;;;;;;;-3.42;65.21;101301.75;4996894;28;20125;-79
2023/11/27 10:35:36;;;;;;;0.68;0.40;;;;;;;-3.43;64.90;101298.34;4996293;28;20061;-77
2023/11/27 10:38:04;;;;;;;3.25;0.40;;;;;;;-3.50;65.06;101288.66;4995397;28;20133;-82
2023/11/27 10:40:33;;;;;;;1.27;0.47;;;;;;;-3.41;64.49;101300.97;4996396;28;20047;-85
2023/11/27 10:43:00;;;;;;;3.88;0.70;;;;;;;-3.43;64.14;101288.13;4996768;28;20094;-85
2023/11/27 10:45:35;;;;;;;2.45;0.40;;;;;;;-3.45;64.26;101299.94;4996532;28;20559;-81
2023/11/27 10:48:03;;;;;;;2.15;0.65;;;;;;;-3.44;63.90;101294.03;4995600;28;20489;-80
2023/11/27 10:50:32;;;;;;;1.50;0.73;;;;;;;-3.46;64.45;101298.19;4995727;28;21562;-82
2023/11/27 10:53:00;;;;;;;2.60;0.70;;;;;;;-3.45;64.37;101310.16;4996403;28;20130;-85
2023/11/27 10:55:30;;;;;;;2.05;0.50;;;;;;;-3.44;64.64;101306.81;4996755;28;20046;-85
2023/11/27 10:58:00;;;;;;;1.92;0.50;;;;;;;-3.45;63.59;101305.03;4995898;28;20125;-77
2023/11/27 11:00:32;;;;;;;0.82;0.40;;;;;;;-3.45;63.88;101309.28;4994556;28;20050;-78
2023/11/27 11:03:06;;;;;;;1.52;0.70;;;;;;;-3.42;63.50;101311.97;4996192;28;20054;-79
2023/11/27 11:05:42;;;;;;;2.00;1.30;;;;;;;-3.47;62.70;101304.13;4995460;28;20050;-77
2023/11/27 11:08:10;;;;;;;5.80;0.55;;;;;;;-3.43;63.59;101307.69;4995181;28;20097;-79
2023/11/27 11:10:40;;;;;;;1.10;0.70;;;;;;;-3.49;62.60;101281.88;4995217;28;20046;-76
2023/11/27 11:13:12;;;;;;;0.95;0.20;;;;;;;-3.44;63.47;101288.94;4994773;28;20159;-79
2023/11/27 11:15:48;;;;;;;1.95;0.60;;;;;;;-3.45;63.13;101284.59;4995374;28;20050;-80
2023/11/27 11:18:23;;;;;;;1.02;0.22;;;;;;;-3.48;62.54;101289.56;4995271;28;20057;-76
2023/11/27 11:21:10;;;;;;;1.25;0.60;;;;;;;-3.50;62.94;101275.88;4995160;28;20385;-77
2023/11/27 11:23:43;;;;;;;1.02;0.50;;;;;;;-3.51;62.68;101275.81;4995026;28;20046;-76
2023/11/27 11:26:34;;;;;;;1.90;0.47;;;;;;;-3.51;62.99;101275.81;4993982;28;20050;-79